createdAt,value
2022-10-07T00:00:48.037Z,0.00
2022-10-07T00:01:48.440Z,0.00
2022-10-07T00:02:48.680Z,0.00
2022-10-07T00:03:49.050Z,0.00
2022-10-07T00:04:49.399Z,0.00
2022-10-07T00:05:49.757Z,0.00
2022-10-07T00:06:50.106Z,0.00
2022-10-07T00:07:50.450Z,0.00
2022-10-07T00:08:50.803Z,0.00
2022-10-07T00:09:51.154Z,0.00
2022-10-07T00:10:51.562Z,0.00
2022-10-07T00:11:51.856Z,0.00
2022-10-07T00:12:52.204Z,0.00
2022-10-07T00:13:52.583Z,0.00
2022-10-07T00:14:52.925Z,0.00
2022-10-07T00:15:53.323Z,0.00
2022-10-07T00:16:53.690Z,0.00
2022-10-07T00:17:54.013Z,0.00
2022-10-07T00:18:54.373Z,0.00
2022-10-07T00:19:54.731Z,0.00
2022-10-07T00:20:55.071Z,0.00
2022-10-07T00:21:55.412Z,0.00
2022-10-07T00:22:55.801Z,0.00
2022-10-07T00:23:56.116Z,0.00
2022-10-07T00:24:56.551Z,0.00
2022-10-07T00:25:56.877Z,0.00
2022-10-07T00:26:57.192Z,0.00
2022-10-07T00:27:57.599Z,0.00
2022-10-07T00:28:57.932Z,0.00
2022-10-07T00:29:58.277Z,0.00
2022-10-07T00:30:58.697Z,0.00
2022-10-07T00:31:59.052Z,0.00
2022-10-07T00:32:59.369Z,0.00
2022-10-07T00:33:59.713Z,0.00
2022-10-07T00:35:00.065Z,0.00
2022-10-07T00:36:00.442Z,0.00
2022-10-07T00:37:00.729Z,0.00
2022-10-07T00:38:01.092Z,0.00
2022-10-07T00:39:01.463Z,0.00
2022-10-07T00:40:01.831Z,0.00
2022-10-07T00:41:02.226Z,0.00
2022-10-07T00:42:02.543Z,0.00
2022-10-07T00:43:03.061Z,0.00
2022-10-07T00:44:03.288Z,0.00
2022-10-07T00:45:03.645Z,0.00
2022-10-07T00:46:04.065Z,0.00
2022-10-07T00:47:04.378Z,0.00
2022-10-07T00:48:04.689Z,0.00
2022-10-07T00:49:05.031Z,0.00
2022-10-07T00:50:05.432Z,0.00
2022-10-07T00:51:05.793Z,0.00
2022-10-07T00:52:06.115Z,0.00
2022-10-07T00:53:06.488Z,0.00
2022-10-07T00:54:06.854Z,0.00
2022-10-07T00:55:07.221Z,0.00
2022-10-07T00:56:07.599Z,0.00
2022-10-07T00:57:07.953Z,0.00
2022-10-07T00:58:08.317Z,0.00
2022-10-07T00:59:08.676Z,0.00
2022-10-07T01:00:09.040Z,0.00
2022-10-07T01:01:09.513Z,0.00
2022-10-07T01:02:09.772Z,0.00
2022-10-07T01:03:10.107Z,0.00
2022-10-07T01:04:10.467Z,0.00
2022-10-07T01:05:10.834Z,0.00
2022-10-07T01:06:11.222Z,0.00
2022-10-07T01:07:11.544Z,0.00
2022-10-07T01:08:11.921Z,0.00
2022-10-07T01:09:12.305Z,0.00
2022-10-07T01:10:12.639Z,0.00
2022-10-07T01:11:13.021Z,0.00
2022-10-07T01:12:13.335Z,0.00
2022-10-07T01:13:13.697Z,0.00
2022-10-07T01:14:14.058Z,0.00
2022-10-07T01:15:14.428Z,0.00
2022-10-07T01:16:14.853Z,0.00
2022-10-07T01:17:15.127Z,0.00
2022-10-07T01:18:15.485Z,0.00
2022-10-07T01:19:15.866Z,0.00
2022-10-07T01:20:16.253Z,0.00
2022-10-07T01:21:16.591Z,0.00
2022-10-07T01:22:16.914Z,0.00
2022-10-07T01:23:17.252Z,0.00
2022-10-07T01:24:17.616Z,0.00
2022-10-07T01:25:17.979Z,0.00
2022-10-07T01:26:18.360Z,0.00
2022-10-07T01:27:18.719Z,0.00
2022-10-07T01:28:19.185Z,0.00
2022-10-07T01:29:19.467Z,0.00
2022-10-07T01:30:19.845Z,0.00
2022-10-07T01:31:20.263Z,0.00
2022-10-07T01:32:20.524Z,0.00
2022-10-07T01:33:20.853Z,0.00
2022-10-07T01:34:21.207Z,0.00
2022-10-07T01:35:21.577Z,0.00
2022-10-07T01:36:22.046Z,0.00
2022-10-07T01:37:22.293Z,0.00
2022-10-07T01:38:22.659Z,0.00
2022-10-07T01:39:23.041Z,0.00
2022-10-07T01:40:23.359Z,0.00
2022-10-07T01:41:23.755Z,0.00
2022-10-07T01:42:24.080Z,0.00
2022-10-07T01:43:24.406Z,0.00
2022-10-07T01:44:24.770Z,0.00
2022-10-07T01:45:25.139Z,0.00
2022-10-07T01:46:25.607Z,0.00
2022-10-07T01:47:25.888Z,0.00
2022-10-07T01:48:26.236Z,0.00
2022-10-07T01:49:26.579Z,0.00
2022-10-07T01:50:26.920Z,0.00
2022-10-07T01:51:27.275Z,0.00
2022-10-07T01:52:27.790Z,0.00
2022-10-07T01:53:27.973Z,0.00
2022-10-07T01:54:28.342Z,0.00
2022-10-07T01:55:28.700Z,0.00
2022-10-07T01:56:29.086Z,0.00
2022-10-07T01:57:29.437Z,0.00
2022-10-07T01:58:29.741Z,0.00
2022-10-07T01:59:30.154Z,0.00
2022-10-07T02:00:30.465Z,0.00
2022-10-07T02:01:30.832Z,0.00
2022-10-07T02:02:31.123Z,0.00
2022-10-07T02:03:31.542Z,0.00
2022-10-07T02:04:31.831Z,0.00
2022-10-07T02:05:32.192Z,0.00
2022-10-07T02:06:32.566Z,0.00
2022-10-07T02:07:32.940Z,0.00
2022-10-07T02:08:33.293Z,0.00
2022-10-07T02:09:33.656Z,0.00
2022-10-07T02:10:34.011Z,0.00
2022-10-07T02:11:34.398Z,0.00
2022-10-07T02:12:34.723Z,0.00
2022-10-07T02:13:35.093Z,0.00
2022-10-07T02:14:35.452Z,0.00
2022-10-07T02:15:35.850Z,0.00
2022-10-07T02:16:36.203Z,0.00
2022-10-07T02:17:36.516Z,0.00
2022-10-07T02:18:36.866Z,0.00
2022-10-07T02:19:37.254Z,0.00
2022-10-07T02:20:37.589Z,0.00
2022-10-07T02:21:37.989Z,0.00
2022-10-07T02:22:38.311Z,0.00
2022-10-07T02:23:38.670Z,0.00
2022-10-07T02:24:39.038Z,0.00
2022-10-07T02:25:39.414Z,0.00
2022-10-07T02:26:39.767Z,0.00
2022-10-07T02:27:40.086Z,0.00
2022-10-07T02:28:40.500Z,0.00
2022-10-07T02:29:40.818Z,0.00
2022-10-07T02:30:41.221Z,0.00
2022-10-07T02:31:41.570Z,0.00
2022-10-07T02:32:41.887Z,0.00
2022-10-07T02:33:42.252Z,0.00
2022-10-07T02:34:42.622Z,0.00
2022-10-07T02:35:42.957Z,0.00
2022-10-07T02:36:43.372Z,0.00
2022-10-07T02:37:43.926Z,0.00
2022-10-07T02:38:44.026Z,0.00
2022-10-07T02:39:44.392Z,0.00
2022-10-07T02:40:44.755Z,0.00
2022-10-07T02:41:45.135Z,0.00
2022-10-07T02:42:45.465Z,0.00
2022-10-07T02:43:45.846Z,0.00
2022-10-07T02:44:46.164Z,0.00
2022-10-07T02:45:46.559Z,0.00
2022-10-07T02:46:46.982Z,0.00
2022-10-07T02:47:47.617Z,0.00
2022-10-07T02:48:47.571Z,0.00
2022-10-07T02:49:47.956Z,0.00
2022-10-07T02:50:48.279Z,0.00
2022-10-07T02:51:48.657Z,0.00
2022-10-07T02:52:48.986Z,0.00
2022-10-07T02:53:49.366Z,0.00
2022-10-07T02:54:49.694Z,0.00
2022-10-07T02:55:50.093Z,0.00
2022-10-07T02:56:50.439Z,0.00
2022-10-07T02:57:50.785Z,0.00
2022-10-07T02:58:51.124Z,0.00
2022-10-07T02:59:51.541Z,0.00
2022-10-07T03:00:51.853Z,0.00
2022-10-07T03:01:52.306Z,0.00
2022-10-07T03:02:52.553Z,0.00
2022-10-07T03:03:52.983Z,0.00
2022-10-07T03:04:53.278Z,0.00
2022-10-07T03:05:53.647Z,0.00
2022-10-07T03:06:54.015Z,0.00
2022-10-07T03:07:54.424Z,0.00
2022-10-07T03:08:54.772Z,0.00
2022-10-07T03:09:55.099Z,0.00
2022-10-07T03:10:55.464Z,0.00
2022-10-07T03:11:55.883Z,0.00
2022-10-07T03:12:56.167Z,0.00
2022-10-07T03:13:56.547Z,0.00
2022-10-07T03:14:56.896Z,0.00
2022-10-07T03:15:57.291Z,0.00
2022-10-07T03:16:57.604Z,0.00
2022-10-07T03:17:57.960Z,0.00
2022-10-07T03:18:58.335Z,0.00
2022-10-07T03:19:58.693Z,0.00
2022-10-07T03:20:59.054Z,0.00
2022-10-07T03:21:59.436Z,0.00
2022-10-07T03:22:59.740Z,0.00
2022-10-07T03:24:00.119Z,0.00
2022-10-07T03:25:00.479Z,0.00
2022-10-07T03:26:00.851Z,0.00
2022-10-07T03:27:01.257Z,0.00
2022-10-07T03:28:01.649Z,0.00
2022-10-07T03:29:01.930Z,0.00
2022-10-07T03:30:02.296Z,0.00
2022-10-07T03:31:02.704Z,0.00
2022-10-07T03:32:03.047Z,0.00
2022-10-07T03:33:03.366Z,0.00
2022-10-07T03:34:03.732Z,0.00
2022-10-07T03:35:04.087Z,0.00
2022-10-07T03:36:04.452Z,0.00
2022-10-07T03:37:04.860Z,0.00
2022-10-07T03:38:05.194Z,0.00
2022-10-07T03:39:05.553Z,0.00
2022-10-07T03:40:05.899Z,0.00
2022-10-07T03:41:06.281Z,0.00
2022-10-07T03:42:06.627Z,0.00
2022-10-07T03:43:06.939Z,0.00
2022-10-07T03:44:07.306Z,0.00
2022-10-07T03:45:07.665Z,0.00
2022-10-07T03:46:08.092Z,0.00
2022-10-07T03:47:10.640Z,0.00
2022-10-07T03:48:08.751Z,0.00
2022-10-07T03:49:09.133Z,0.00
2022-10-07T03:50:09.457Z,0.00
2022-10-07T03:51:09.835Z,0.00
2022-10-07T03:52:10.206Z,0.00
2022-10-07T03:53:10.519Z,0.00
2022-10-07T03:54:10.874Z,0.00
2022-10-07T03:55:11.241Z,0.00
2022-10-07T03:56:11.608Z,0.00
2022-10-07T03:57:12.003Z,0.00
2022-10-07T03:58:12.340Z,0.00
2022-10-07T03:59:12.660Z,0.00
2022-10-07T04:00:13.031Z,0.00
2022-10-07T04:01:13.365Z,0.00
2022-10-07T04:02:13.798Z,0.00
2022-10-07T04:03:14.143Z,0.00
2022-10-07T04:04:14.413Z,0.00
2022-10-07T04:05:14.781Z,0.00
2022-10-07T04:06:15.150Z,0.00
2022-10-07T04:07:15.524Z,0.00
2022-10-07T04:08:15.864Z,0.00
2022-10-07T04:09:16.219Z,0.00
2022-10-07T04:10:16.572Z,0.00
2022-10-07T04:11:16.933Z,0.00
2022-10-07T04:12:17.311Z,0.00
2022-10-07T04:13:17.627Z,0.00
2022-10-07T04:14:17.993Z,0.00
2022-10-07T04:15:18.362Z,0.00
2022-10-07T04:16:18.830Z,0.00
2022-10-07T04:17:19.126Z,0.00
2022-10-07T04:18:19.450Z,0.00
2022-10-07T04:19:19.814Z,0.00
2022-10-07T04:20:20.151Z,0.00
2022-10-07T04:21:20.512Z,0.00
2022-10-07T04:22:20.891Z,0.00
2022-10-07T04:23:21.218Z,0.00
2022-10-07T04:24:21.549Z,0.00
2022-10-07T04:25:21.938Z,0.00
2022-10-07T04:26:22.257Z,0.00
2022-10-07T04:27:46.766Z,0.00
2022-10-07T04:28:23.058Z,0.00
2022-10-07T04:29:23.306Z,0.00
2022-10-07T04:30:23.661Z,0.00
2022-10-07T04:31:24.160Z,0.00
2022-10-07T04:32:24.421Z,0.00
2022-10-07T04:33:24.748Z,0.00
2022-10-07T04:34:25.109Z,0.00
2022-10-07T04:35:25.487Z,0.00
2022-10-07T04:36:25.851Z,0.00
2022-10-07T04:37:26.294Z,0.00
2022-10-07T04:38:28.484Z,0.00
2022-10-07T04:39:42.769Z,0.00
2022-10-07T04:40:27.238Z,0.00
2022-10-07T04:41:27.599Z,0.00
2022-10-07T04:42:27.956Z,0.00
2022-10-07T04:43:28.301Z,0.00
2022-10-07T04:44:28.634Z,0.00
2022-10-07T04:45:28.998Z,0.00
2022-10-07T04:46:29.398Z,0.00
2022-10-07T04:47:29.753Z,0.00
2022-10-07T04:48:30.082Z,0.00
2022-10-07T04:49:30.455Z,0.00
2022-10-07T04:50:30.772Z,0.00
2022-10-07T04:51:31.191Z,0.00
2022-10-07T04:52:31.487Z,0.00
2022-10-07T04:53:31.825Z,0.00
2022-10-07T04:54:32.186Z,0.00
2022-10-07T04:55:32.529Z,0.00
2022-10-07T04:56:32.878Z,0.00
2022-10-07T04:57:33.214Z,0.00
2022-10-07T04:58:33.434Z,0.00
2022-10-07T04:59:34.468Z,0.00
2022-10-07T05:00:34.092Z,0.00
2022-10-07T05:01:34.286Z,0.00
2022-10-07T05:02:34.510Z,0.00
2022-10-07T05:03:34.740Z,0.00
2022-10-07T05:04:35.047Z,0.00
2022-10-07T05:05:35.342Z,0.00
2022-10-07T05:06:35.631Z,0.00
2022-10-07T05:07:35.990Z,0.00
2022-10-07T05:08:36.216Z,0.00
2022-10-07T05:09:36.380Z,0.00
2022-10-07T05:10:36.676Z,0.00
2022-10-07T05:11:36.852Z,0.00
2022-10-07T05:12:37.036Z,0.00
2022-10-07T05:13:37.296Z,0.00
2022-10-07T05:14:37.572Z,0.00
2022-10-07T05:15:37.862Z,0.00
2022-10-07T05:16:38.194Z,0.00
2022-10-07T05:17:38.373Z,0.00
2022-10-07T05:18:38.502Z,0.00
2022-10-07T05:19:38.799Z,0.00
2022-10-07T05:20:39.117Z,0.00
2022-10-07T05:21:39.385Z,0.00
2022-10-07T05:22:39.554Z,0.00
2022-10-07T05:23:39.825Z,0.00
2022-10-07T05:24:40.116Z,0.00
2022-10-07T05:25:40.478Z,5.62
2022-10-07T05:26:40.699Z,5.62
2022-10-07T05:27:41.005Z,5.62
2022-10-07T05:28:41.211Z,5.62
2022-10-07T05:29:41.424Z,5.62
2022-10-07T05:30:41.597Z,5.62
2022-10-07T05:31:41.803Z,5.62
2022-10-07T05:32:41.970Z,11.25
2022-10-07T05:33:42.124Z,11.25
2022-10-07T05:34:42.414Z,11.25
2022-10-07T05:35:42.741Z,11.25
2022-10-07T05:36:42.879Z,16.88
2022-10-07T05:37:47.528Z,16.88
2022-10-07T05:38:43.356Z,16.88
2022-10-07T05:39:43.646Z,16.88
2022-10-07T05:40:43.814Z,16.88
2022-10-07T05:41:45.983Z,22.50
2022-10-07T05:42:44.318Z,22.50
2022-10-07T05:43:44.457Z,22.50
2022-10-07T05:44:44.739Z,28.12
2022-10-07T05:45:44.956Z,28.12
2022-10-07T05:46:45.120Z,28.12
2022-10-07T05:47:45.714Z,28.12
2022-10-07T05:48:45.683Z,33.75
2022-10-07T05:49:45.885Z,33.75
2022-10-07T05:50:46.049Z,33.75
2022-10-07T05:51:46.344Z,39.38
2022-10-07T05:52:46.595Z,39.38
2022-10-07T05:53:46.708Z,39.38
2022-10-07T05:54:46.992Z,45.00
2022-10-07T05:55:47.173Z,45.00
2022-10-07T05:56:47.332Z,45.00
2022-10-07T05:57:47.983Z,50.62
2022-10-07T05:58:47.802Z,50.62
2022-10-07T05:59:48.093Z,50.62
2022-10-07T06:00:48.391Z,50.62
2022-10-07T06:01:48.736Z,56.25
2022-10-07T06:02:49.008Z,56.25
2022-10-07T06:03:49.138Z,56.25
2022-10-07T06:04:49.334Z,61.88
2022-10-07T06:05:49.497Z,61.88
2022-10-07T06:06:49.673Z,61.88
2022-10-07T06:07:49.988Z,67.50
2022-10-07T06:08:50.265Z,67.50
2022-10-07T06:09:50.415Z,67.50
2022-10-07T06:10:50.588Z,73.12
2022-10-07T06:11:50.891Z,73.12
2022-10-07T06:12:51.208Z,73.12
2022-10-07T06:13:51.495Z,73.12
2022-10-07T06:14:51.672Z,78.75
2022-10-07T06:15:51.982Z,78.75
2022-10-07T06:16:52.263Z,78.75
2022-10-07T06:17:52.493Z,84.38
2022-10-07T06:18:52.772Z,84.38
2022-10-07T06:19:53.066Z,84.38
2022-10-07T06:20:53.266Z,84.38
2022-10-07T06:21:53.563Z,90.00
2022-10-07T06:22:53.908Z,90.00
2022-10-07T06:23:54.145Z,90.00
2022-10-07T06:24:54.438Z,95.62
2022-10-07T06:25:54.629Z,95.62
2022-10-07T06:26:54.916Z,95.62
2022-10-07T06:27:55.372Z,95.62
2022-10-07T06:28:55.516Z,101.25
2022-10-07T06:29:55.829Z,101.25
2022-10-07T06:30:56.248Z,101.25
2022-10-07T06:31:56.420Z,101.25
2022-10-07T06:32:56.591Z,106.88
2022-10-07T06:33:56.748Z,106.88
2022-10-07T06:34:56.962Z,106.88
2022-10-07T06:36:00.922Z,106.88
2022-10-07T06:36:57.305Z,106.88
2022-10-07T06:37:57.670Z,112.50
2022-10-07T06:38:57.797Z,112.50
2022-10-07T06:39:59.702Z,112.50
2022-10-07T06:40:58.253Z,112.50
2022-10-07T06:41:58.453Z,118.12
2022-10-07T06:42:58.632Z,118.12
2022-10-07T06:43:58.800Z,118.12
2022-10-07T06:44:58.966Z,118.12
2022-10-07T06:45:59.210Z,118.12
2022-10-07T06:46:59.429Z,123.75
2022-10-07T06:47:59.635Z,123.75
2022-10-07T06:48:59.795Z,123.75
2022-10-07T06:49:59.991Z,123.75
2022-10-07T06:51:00.154Z,123.75
2022-10-07T06:52:00.322Z,123.75
2022-10-07T06:53:00.519Z,129.38
2022-10-07T06:54:00.662Z,129.38
2022-10-07T06:55:00.817Z,129.38
2022-10-07T06:56:01.014Z,129.38
2022-10-07T06:57:01.175Z,129.38
2022-10-07T06:58:03.501Z,135.00
2022-10-07T06:59:01.540Z,135.00
2022-10-07T07:00:01.709Z,135.00
2022-10-07T07:01:01.969Z,135.00
2022-10-07T07:02:02.156Z,135.00
2022-10-07T07:03:02.262Z,135.00
2022-10-07T07:04:02.437Z,135.00
2022-10-07T07:06:02.778Z,140.62
2022-10-07T07:07:02.972Z,140.62
2022-10-07T07:08:03.183Z,140.62
2022-10-07T07:09:03.531Z,140.62
2022-10-07T07:10:03.644Z,140.62
2022-10-07T07:11:03.818Z,140.62
2022-10-07T07:12:03.994Z,146.25
2022-10-07T07:13:04.197Z,146.25
2022-10-07T07:14:04.379Z,146.25
2022-10-07T07:15:04.586Z,146.25
2022-10-07T07:16:04.758Z,146.25
2022-10-07T07:17:04.976Z,151.88
2022-10-07T07:18:05.131Z,151.88
2022-10-07T07:19:05.340Z,151.88
2022-10-07T07:20:05.521Z,151.88
2022-10-07T07:21:05.727Z,151.88
2022-10-07T07:22:05.908Z,151.88
2022-10-07T07:23:06.111Z,157.50
2022-10-07T07:24:06.288Z,157.50
2022-10-07T07:25:06.475Z,157.50
2022-10-07T07:26:06.668Z,157.50
2022-10-07T07:27:06.871Z,163.12
2022-10-07T07:28:07.175Z,163.12
2022-10-07T07:29:07.280Z,163.12
2022-10-07T07:30:07.432Z,163.12
2022-10-07T07:31:07.652Z,163.12
2022-10-07T07:32:07.785Z,163.12
2022-10-07T07:33:07.998Z,163.12
2022-10-07T07:34:08.194Z,163.12
2022-10-07T07:35:08.373Z,163.12
2022-10-07T07:36:08.566Z,157.50
2022-10-07T07:37:08.751Z,168.75
2022-10-07T07:38:08.995Z,163.12
2022-10-07T07:39:09.125Z,168.75
2022-10-07T07:40:09.313Z,168.75
2022-10-07T07:41:09.514Z,174.38
2022-10-07T07:42:09.696Z,174.38
2022-10-07T07:43:09.888Z,174.38
2022-10-07T07:44:10.082Z,174.38
2022-10-07T07:45:10.255Z,174.38
2022-10-07T07:46:10.495Z,174.38
2022-10-07T07:47:10.653Z,180.00
2022-10-07T07:48:10.856Z,180.00
2022-10-07T07:49:11.011Z,185.62
2022-10-07T07:50:11.217Z,191.25
2022-10-07T07:51:11.394Z,196.88
2022-10-07T07:52:11.602Z,241.88
2022-10-07T07:53:11.806Z,270.00
2022-10-07T07:54:11.978Z,275.62
2022-10-07T07:55:12.169Z,270.00
2022-10-07T07:56:12.351Z,247.50
2022-10-07T07:57:12.532Z,219.38
2022-10-07T07:58:12.744Z,202.50
2022-10-07T07:59:12.933Z,196.88
2022-10-07T08:00:13.178Z,202.50
2022-10-07T08:01:13.374Z,191.25
2022-10-07T08:02:13.525Z,191.25
2022-10-07T08:03:13.730Z,191.25
2022-10-07T08:04:13.866Z,191.25
2022-10-07T08:05:14.103Z,191.25
2022-10-07T08:06:14.239Z,191.25
2022-10-07T08:07:14.427Z,196.88
2022-10-07T08:08:14.626Z,196.88
2022-10-07T08:09:14.810Z,196.88
2022-10-07T08:10:15.003Z,196.88
2022-10-07T08:11:15.177Z,196.88
2022-10-07T08:12:15.406Z,196.88
2022-10-07T08:13:15.573Z,196.88
2022-10-07T08:14:15.755Z,196.88
2022-10-07T08:15:15.939Z,196.88
2022-10-07T08:16:16.163Z,196.88
2022-10-07T08:17:16.315Z,196.88
2022-10-07T08:18:16.514Z,202.50
2022-10-07T08:19:16.694Z,202.50
2022-10-07T08:20:16.905Z,196.88
2022-10-07T08:21:17.082Z,202.50
2022-10-07T08:22:17.292Z,208.12
2022-10-07T08:23:17.487Z,219.38
2022-10-07T08:24:17.673Z,236.25
2022-10-07T08:25:17.867Z,258.75
2022-10-07T08:26:18.060Z,270.00
2022-10-07T08:27:18.244Z,320.62
2022-10-07T08:28:18.497Z,376.88
2022-10-07T08:29:18.601Z,421.88
2022-10-07T08:30:18.785Z,461.25
2022-10-07T08:31:18.995Z,444.38
2022-10-07T08:32:19.144Z,427.50
2022-10-07T08:33:19.357Z,427.50
2022-10-07T08:34:19.500Z,427.50
2022-10-07T08:35:19.688Z,438.75
2022-10-07T08:36:19.869Z,450.00
2022-10-07T08:37:20.055Z,444.38
2022-10-07T08:38:20.294Z,410.62
2022-10-07T08:39:20.446Z,360.00
2022-10-07T08:40:20.620Z,286.88
2022-10-07T08:41:20.799Z,225.00
2022-10-07T08:42:20.979Z,213.75
2022-10-07T08:43:21.204Z,213.75
2022-10-07T08:44:21.343Z,213.75
2022-10-07T08:45:21.533Z,213.75
2022-10-07T08:46:21.793Z,213.75
2022-10-07T08:47:21.906Z,213.75
2022-10-07T08:48:22.112Z,213.75
2022-10-07T08:49:22.259Z,213.75
2022-10-07T08:50:22.483Z,213.75
2022-10-07T08:51:22.661Z,213.75
2022-10-07T08:52:22.818Z,213.75
2022-10-07T08:53:23.021Z,213.75
2022-10-07T08:54:23.203Z,213.75
2022-10-07T08:55:23.403Z,213.75
2022-10-07T08:56:23.610Z,213.75
2022-10-07T08:57:23.797Z,213.75
2022-10-07T08:58:24.011Z,213.75
2022-10-07T08:59:24.182Z,213.75
2022-10-07T09:00:24.378Z,219.38
2022-10-07T09:01:24.681Z,219.38
2022-10-07T09:02:24.796Z,219.38
2022-10-07T09:03:25.428Z,219.38
2022-10-07T09:04:25.097Z,219.38
2022-10-07T09:05:25.284Z,219.38
2022-10-07T09:06:25.477Z,219.38
2022-10-07T09:07:25.669Z,219.38
2022-10-07T09:08:25.862Z,219.38
2022-10-07T09:09:26.032Z,219.38
2022-10-07T09:10:26.237Z,225.00
2022-10-07T09:11:26.421Z,219.38
2022-10-07T09:12:26.601Z,225.00
2022-10-07T09:13:26.827Z,225.00
2022-10-07T09:14:26.998Z,225.00
2022-10-07T09:15:27.172Z,225.00
2022-10-07T09:16:27.374Z,225.00
2022-10-07T09:17:31.651Z,225.00
2022-10-07T09:18:27.762Z,225.00
2022-10-07T09:19:27.917Z,230.62
2022-10-07T09:20:28.095Z,225.00
2022-10-07T09:21:28.284Z,225.00
2022-10-07T09:22:28.468Z,225.00
2022-10-07T09:23:28.671Z,225.00
2022-10-07T09:24:28.851Z,225.00
2022-10-07T09:25:29.052Z,230.62
2022-10-07T09:26:29.272Z,230.62
2022-10-07T09:27:29.428Z,230.62
2022-10-07T09:28:29.706Z,230.62
2022-10-07T09:29:29.815Z,230.62
2022-10-07T09:30:30.007Z,230.62
2022-10-07T09:31:30.269Z,230.62
2022-10-07T09:32:30.412Z,230.62
2022-10-07T09:33:30.594Z,230.62
2022-10-07T09:34:30.780Z,230.62
2022-10-07T09:35:30.952Z,230.62
2022-10-07T09:36:31.124Z,230.62
2022-10-07T09:37:31.335Z,236.25
2022-10-07T09:38:31.535Z,236.25
2022-10-07T09:39:31.688Z,236.25
2022-10-07T09:40:31.845Z,241.88
2022-10-07T09:41:32.046Z,247.50
2022-10-07T09:42:32.225Z,247.50
2022-10-07T09:43:32.445Z,247.50
2022-10-07T09:44:32.580Z,247.50
2022-10-07T09:45:32.766Z,247.50
2022-10-07T09:46:32.988Z,253.12
2022-10-07T09:47:33.152Z,253.12
2022-10-07T09:48:33.453Z,253.12
2022-10-07T09:49:33.523Z,253.12
2022-10-07T09:50:33.724Z,253.12
2022-10-07T09:51:33.884Z,258.75
2022-10-07T09:52:34.081Z,258.75
2022-10-07T09:53:34.294Z,258.75
2022-10-07T09:54:34.486Z,264.38
2022-10-07T09:55:34.678Z,281.25
2022-10-07T09:56:34.867Z,270.00
2022-10-07T09:57:35.052Z,270.00
2022-10-07T09:58:35.258Z,275.62
2022-10-07T09:59:35.451Z,281.25
2022-10-07T10:00:35.644Z,286.88
2022-10-07T10:01:35.839Z,286.88
2022-10-07T10:02:36.151Z,292.50
2022-10-07T10:03:36.291Z,298.12
2022-10-07T10:04:36.410Z,309.38
2022-10-07T10:05:36.606Z,315.00
2022-10-07T10:06:36.791Z,326.25
2022-10-07T10:07:36.984Z,450.00
2022-10-07T10:08:37.206Z,793.12
2022-10-07T10:09:37.365Z,978.75
2022-10-07T10:10:37.606Z,1040.62
2022-10-07T10:11:37.762Z,1074.38
2022-10-07T10:12:40.653Z,1136.25
2022-10-07T10:13:38.159Z,1243.12
2022-10-07T10:14:38.318Z,1400.62
2022-10-07T10:15:38.589Z,1445.62
2022-10-07T10:16:38.723Z,1333.12
2022-10-07T10:17:38.907Z,1231.88
2022-10-07T10:18:39.137Z,1203.75
2022-10-07T10:19:39.284Z,1164.38
2022-10-07T10:20:39.486Z,1147.50
2022-10-07T10:21:39.697Z,1153.12
2022-10-07T10:22:39.900Z,1164.38
2022-10-07T10:23:40.118Z,1130.62
2022-10-07T10:24:40.276Z,1125.00
2022-10-07T10:25:40.493Z,1102.50
2022-10-07T10:26:40.683Z,1113.75
2022-10-07T10:27:40.871Z,1141.88
2022-10-07T10:28:41.150Z,1153.12
2022-10-07T10:29:41.275Z,1186.88
2022-10-07T10:30:41.472Z,1181.25
2022-10-07T10:31:41.743Z,1170.00
2022-10-07T10:32:41.902Z,1164.38
2022-10-07T10:33:42.080Z,1175.62
2022-10-07T10:34:42.279Z,1164.38
2022-10-07T10:35:42.468Z,1164.38
2022-10-07T10:36:42.640Z,1170.00
2022-10-07T10:37:42.833Z,1175.62
2022-10-07T10:38:43.100Z,1186.88
2022-10-07T10:39:43.269Z,1186.88
2022-10-07T10:40:43.463Z,1215.00
2022-10-07T10:41:43.667Z,1186.88
2022-10-07T10:42:44.334Z,1226.25
2022-10-07T10:43:44.086Z,1248.75
2022-10-07T10:44:44.278Z,1237.50
2022-10-07T10:45:44.473Z,1231.88
2022-10-07T10:46:47.376Z,1220.62
2022-10-07T10:47:44.874Z,1231.88
2022-10-07T10:48:45.083Z,1243.12
2022-10-07T10:49:45.274Z,1243.12
2022-10-07T10:50:45.469Z,1243.12
2022-10-07T10:51:45.653Z,1254.38
2022-10-07T10:52:46.190Z,1299.38
2022-10-07T10:53:46.086Z,1316.25
2022-10-07T10:54:46.246Z,1310.62
2022-10-07T10:55:46.434Z,1350.00
2022-10-07T10:56:46.626Z,1445.62
2022-10-07T10:57:46.819Z,1636.88
2022-10-07T10:58:47.028Z,1563.75
2022-10-07T10:59:47.222Z,1479.38
2022-10-07T11:00:47.417Z,1513.12
2022-10-07T11:01:47.640Z,613.12
2022-10-07T11:02:48.535Z,1473.75
2022-10-07T11:03:48.019Z,1428.75
2022-10-07T11:04:48.207Z,528.75
2022-10-07T11:05:48.450Z,1338.75
2022-10-07T11:06:48.804Z,1321.88
2022-10-07T11:07:48.820Z,1305.00
2022-10-07T11:08:49.065Z,1305.00
2022-10-07T11:09:49.236Z,1299.38
2022-10-07T11:10:49.423Z,1260.00
2022-10-07T11:11:49.618Z,1282.50
2022-10-07T11:12:49.808Z,1282.50
2022-10-07T11:13:50.023Z,1305.00
2022-10-07T11:14:52.575Z,1293.75
2022-10-07T11:15:50.453Z,1299.38
2022-10-07T11:16:50.581Z,1260.00
2022-10-07T11:17:50.826Z,1299.38
2022-10-07T11:18:51.018Z,1310.62
2022-10-07T11:19:51.274Z,1305.00
2022-10-07T11:20:51.493Z,1198.12
2022-10-07T11:21:51.553Z,630.00
2022-10-07T11:22:51.748Z,1338.75
2022-10-07T11:23:51.962Z,635.62
2022-10-07T11:24:52.155Z,1530.00
2022-10-07T11:25:52.379Z,736.88
2022-10-07T11:26:52.573Z,1541.25
2022-10-07T11:27:52.757Z,1490.62
2022-10-07T11:28:52.966Z,1535.62
2022-10-07T11:29:53.160Z,1726.88
2022-10-07T11:30:53.405Z,1822.50
2022-10-07T11:31:53.580Z,1794.38
2022-10-07T11:32:53.774Z,1743.75
2022-10-07T11:33:53.989Z,1721.25
2022-10-07T11:34:54.829Z,1653.75
2022-10-07T11:35:54.370Z,455.62
2022-10-07T11:36:54.586Z,1164.38
2022-10-07T11:37:54.795Z,1428.75
2022-10-07T11:38:55.044Z,1395.00
2022-10-07T11:39:55.206Z,1411.88
2022-10-07T11:40:55.403Z,1473.75
2022-10-07T11:41:55.601Z,1569.38
2022-10-07T11:42:55.793Z,1546.88
2022-10-07T11:43:56.016Z,1513.12
2022-10-07T11:44:56.202Z,1434.38
2022-10-07T11:45:56.420Z,1389.38
2022-10-07T11:46:56.658Z,1389.38
2022-10-07T11:47:56.818Z,1327.50
2022-10-07T11:48:57.091Z,1372.50
2022-10-07T11:49:57.201Z,1327.50
2022-10-07T11:50:57.385Z,1316.25
2022-10-07T11:51:57.580Z,1327.50
2022-10-07T11:52:57.766Z,1175.62
2022-10-07T11:53:57.985Z,1288.12
2022-10-07T11:54:58.184Z,1260.00
2022-10-07T11:55:58.373Z,1271.25
2022-10-07T11:56:58.553Z,1260.00
2022-10-07T11:57:58.758Z,1130.62
2022-10-07T11:58:58.954Z,978.75
2022-10-07T11:59:59.165Z,1074.38
2022-10-07T12:00:59.373Z,1254.38
2022-10-07T12:01:59.602Z,1231.88
2022-10-07T12:02:59.865Z,1192.50
2022-10-07T12:04:00.016Z,1158.75
2022-10-07T12:05:00.221Z,1299.38
2022-10-07T12:06:00.410Z,1423.12
2022-10-07T12:07:00.609Z,1575.00
2022-10-07T12:08:00.808Z,1563.75
2022-10-07T12:09:01.042Z,1530.00
2022-10-07T12:10:01.250Z,1749.38
2022-10-07T12:11:02.653Z,1788.75
2022-10-07T12:12:01.662Z,1575.00
2022-10-07T12:13:01.852Z,1546.88
2022-10-07T12:14:02.058Z,1513.12
2022-10-07T12:15:02.277Z,1507.50
2022-10-07T12:16:02.521Z,1620.00
2022-10-07T12:17:02.617Z,1057.50
2022-10-07T12:18:02.803Z,1490.62
2022-10-07T12:19:03.024Z,1428.75
2022-10-07T12:20:03.238Z,1288.12
2022-10-07T12:21:03.424Z,1276.88
2022-10-07T12:22:03.617Z,1248.75
2022-10-07T12:23:03.868Z,1198.12
2022-10-07T12:24:04.009Z,1248.75
2022-10-07T12:25:07.836Z,1248.75
2022-10-07T12:26:04.420Z,1243.12
2022-10-07T12:27:04.615Z,1130.62
2022-10-07T12:28:04.848Z,1164.38
2022-10-07T12:29:05.013Z,956.25
2022-10-07T12:30:05.204Z,916.88
2022-10-07T12:31:05.419Z,1074.38
2022-10-07T12:32:05.663Z,1085.62
2022-10-07T12:33:05.793Z,1051.88
2022-10-07T12:34:05.994Z,973.12
2022-10-07T12:35:06.183Z,1395.00
2022-10-07T12:36:06.368Z,1395.00
2022-10-07T12:37:06.569Z,1423.12
2022-10-07T12:38:06.786Z,1552.50
2022-10-07T12:39:06.995Z,1957.50
2022-10-07T12:40:07.152Z,2272.50
2022-10-07T12:41:07.339Z,2210.62
2022-10-07T12:42:07.525Z,2283.75
2022-10-07T12:43:07.753Z,2081.25
2022-10-07T12:44:07.935Z,1878.75
2022-10-07T12:45:08.121Z,815.62
2022-10-07T12:46:08.355Z,534.38
2022-10-07T12:47:08.461Z,568.12
2022-10-07T12:48:08.684Z,1693.12
2022-10-07T12:49:08.881Z,1642.50
2022-10-07T12:50:09.074Z,1614.38
2022-10-07T12:51:09.303Z,1591.88